Time;durP1;ratioP1;P1;durP2;ratioP2;P2;SDS_P1;SDS_P2;PMS_P1;PMS_P2;Temp;Humidity;BMP_temperature;BMP_pressure;BME280_temperature;BME280_humidity;BME280_pressure;Samples;Min_cycle;Max_cycle;Signal;HPM_P1;HPM_P2
2022/11/11 00:00:47;;;;;;;;;;;;;;;13.86;65.77;101472.66;5078474;28;19943;-69
2022/11/11 00:03:12;;;;;;;;;;;;;;;13.85;66.38;101470.06;5080038;28;19952;-68
2022/11/11 00:05:37;;;;;;;;;;;;;;;13.76;65.81;101471.06;5074592;28;20356;-68
2022/11/11 00:08:03;;;;;;;;;;;;;;;13.81;65.60;101463.97;5075551;28;20327;-69
2022/11/11 00:10:29;;;;;;;;;;;;;;;13.84;65.77;101469.16;5075456;28;19951;-69
2022/11/11 00:12:58;;;;;;;;;;;;;;;13.89;65.94;101467.34;5108178;28;20368;-70
2022/11/11 00:15:23;;;;;;;;;;;;;;;13.86;66.37;101466.53;5075501;28;19920;-68
2022/11/11 00:26:05;;;;;;;;;;;;;;;14.05;65.23;101454.72;5075420;28;19924;-68
2022/11/11 00:28:31;;;;;;;;;;;;;;;14.03;65.62;101453.84;5075129;28;19916;-69
2022/11/11 00:31:03;;;;;;;;;;;;;;;14.03;65.50;101452.09;5075058;28;19920;-68
2022/11/11 00:33:28;;;;;;;;;;;;;;;14.06;65.49;101459.09;5075264;28;19923;-68
2022/11/11 00:35:54;;;;;;;;;;;;;;;14.15;64.94;101468.63;5074634;28;19920;-69
2022/11/11 00:41:03;;;;;;;;;;;;;;;14.08;65.04;101462.56;5074808;28;19973;-69
2022/11/11 00:43:28;;;;;;;;;;;;;;;13.93;65.93;101465.50;5073612;28;19916;-68
2022/11/11 00:50:57;;;;;;;;;;;;;;;14.01;65.59;101467.13;5074673;28;19923;-68
2022/11/11 00:51:22;;;;;;;;;;;;;;;14.17;65.39;101490.63;5074478;28;20292;-69
2022/11/11 00:53:48;;;;;;;;;;;;;;;14.01;65.18;101487.38;5074555;28;20367;-69
2022/11/11 00:56:13;;;;;;;;;;;;;;;13.96;65.83;101479.53;5074572;28;20330;-68
2022/11/11 00:58:38;;;;;;;;;;;;;;;13.94;66.00;101486.63;5074466;28;20011;-69
2022/11/11 01:01:03;;;;;;;;;;;;;;;13.93;66.40;101494.59;5074298;28;20348;-69
2022/11/11 01:03:29;;;;;;;;;;;;;;;14.16;65.70;101499.41;5074599;28;19989;-69
2022/11/11 01:05:58;;;;;;;;;;;;;;;14.32;65.39;101495.56;5073544;28;20023;-69
2022/11/11 01:08:24;;;;;;;;;;;;;;;14.44;64.55;101491.81;5074475;28;19916;-70
2022/11/11 01:10:49;;;;;;;;;;;;;;;14.42;64.69;101488.34;5074198;28;19924;-68
2022/11/11 01:13:19;;;;;;;;;;;;;;;14.54;64.25;101488.13;5074435;28;19920;-70
2022/11/11 01:15:46;;;;;;;;;;;;;;;14.58;63.97;101483.66;5074471;28;19917;-69
2022/11/11 01:18:12;;;;;;;;;;;;;;;14.60;64.01;101481.84;5074292;28;19917;-69
2022/11/11 01:20:38;;;;;;;;;;;;;;;14.35;64.67;101477.03;5074227;28;19924;-69
2022/11/11 01:23:03;;;;;;;;;;;;;;;14.46;64.58;101466.25;5106684;28;19916;-70
2022/11/11 01:25:31;;;;;;;;;;;;;;;14.37;64.53;101462.00;5074109;28;19916;-69
2022/11/11 01:27:56;;;;;;;;;;;;;;;14.41;64.76;101454.91;5074384;28;19920;-70
2022/11/11 01:30:22;;;;;;;;;;;;;;;14.20;65.59;101449.13;5072927;28;19921;-70
2022/11/11 01:32:47;;;;;;;;;;;;;;;14.42;64.29;101446.91;5074156;28;20078;-70
2022/11/11 01:35:12;;;;;;;;;;;;;;;14.15;64.83;101442.19;5074048;28;19921;-69
2022/11/11 01:37:37;;;;;;;;;;;;;;;14.27;64.66;101441.94;5073952;28;19962;-68
2022/11/11 01:40:03;;;;;;;;;;;;;;;13.94;65.53;101440.84;5073845;28;20288;-68
2022/11/11 01:42:28;;;;;;;;;;;;;;;13.87;65.63;101444.47;5073837;28;19943;-69
2022/11/11 01:44:53;;;;;;;;;;;;;;;13.99;65.55;101452.19;5072861;28;19920;-69
2022/11/11 01:47:20;;;;;;;;;;;;;;;14.07;65.78;101439.69;5073836;28;19931;-69
2022/11/11 01:50:00;;;;;;;;;;;;;;;14.19;65.33;101431.50;5073948;28;20027;-69
2022/11/11 01:52:28;;;;;;;;;;;;;;;14.15;65.35;101439.53;5074023;28;19927;-70
2022/11/11 01:54:57;;;;;;;;;;;;;;;14.25;64.95;101435.81;5073962;28;19924;-69
2022/11/11 01:57:25;;;;;;;;;;;;;;;14.32;64.82;101433.91;5106565;28;19916;-70
2022/11/11 01:59:59;;;;;;;;;;;;;;;14.29;65.21;101429.56;5077060;28;19995;-70
2022/11/11 02:02:33;;;;;;;;;;;;;;;14.44;64.34;101421.34;5075608;28;19938;-69
2022/11/11 02:07:46;;;;;;;;;;;;;;;14.34;64.47;101406.56;5073138;28;19969;-69
2022/11/11 02:10:11;;;;;;;;;;;;;;;14.39;64.34;101411.75;5074281;28;19917;-69
2022/11/11 02:15:21;;;;;;;;;;;;;;;14.28;65.39;101423.44;5073670;28;19946;-70
2022/11/11 02:17:47;;;;;;;;;;;;;;;14.41;64.57;101425.81;5073408;28;19924;-69
2022/11/11 02:20:14;;;;;;;;;;;;;;;14.42;64.61;101438.13;5073643;28;19917;-70
2022/11/11 02:22:39;;;;;;;;;;;;;;;14.47;64.29;101447.69;5072787;28;19916;-69
2022/11/11 02:25:06;;;;;;;;;;;;;;;14.40;64.30;101453.13;5073483;28;20425;-69
2022/11/11 02:27:35;;;;;;;;;;;;;;;14.38;64.50;101466.38;5106111;28;19942;-69
2022/11/11 02:30:03;;;;;;;;;;;;;;;14.42;64.91;101464.56;5073398;28;19917;-69
2022/11/11 02:32:29;;;;;;;;;;;;;;;14.45;64.28;101459.22;5073318;28;19924;-69
2022/11/11 02:34:54;;;;;;;;;;;;;;;14.47;65.13;101455.63;5072956;28;19920;-68
2022/11/11 02:37:21;;;;;;;;;;;;;;;14.45;64.45;101461.88;5072937;28;20441;-68
2022/11/11 02:39:48;;;;;;;;;;;;;;;14.36;64.50;101460.25;5072307;28;19916;-69
2022/11/11 02:42:15;;;;;;;;;;;;;;;14.24;65.00;101469.31;5073445;28;19917;-68
2022/11/11 02:44:40;;;;;;;;;;;;;;;14.46;64.32;101485.63;5073208;28;19920;-68
2022/11/11 02:47:06;;;;;;;;;;;;;;;14.45;65.05;101488.31;5072331;28;19928;-69
2022/11/11 02:49:31;;;;;;;;;;;;;;;14.57;64.30;101489.88;5073407;28;20292;-69
2022/11/11 02:51:56;;;;;;;;;;;;;;;14.38;64.79;101500.75;5071705;28;20023;-68
2022/11/11 02:54:21;;;;;;;;;;;;;;;14.61;64.32;101504.78;5071516;28;19920;-68
2022/11/11 02:59:30;;;;;;;;;;;;;;;14.73;63.60;101493.94;5073901;28;19928;-69
2022/11/11 03:01:56;;;;;;;;;;;;;;;14.78;63.66;101489.41;5075760;28;19921;-69
2022/11/11 03:04:21;;;;;;;;;;;;;;;14.54;63.97;101489.00;5076719;28;19921;-69
2022/11/11 03:06:46;;;;;;;;;;;;;;;14.59;64.12;101485.41;5076970;28;19973;-69
2022/11/11 03:09:12;;;;;;;;;;;;;;;14.73;63.77;101491.28;5076722;28;19970;-68
2022/11/11 03:11:37;;;;;;;;;;;;;;;14.69;63.86;101486.97;5076605;28;20279;-67
2022/11/11 03:14:03;;;;;;;;;;;;;;;14.71;63.78;101485.13;5076467;28;19924;-68
2022/11/11 03:19:12;;;;;;;;;;;;;;;14.84;63.50;101491.94;5076620;28;19932;-68
2022/11/11 03:21:38;;;;;;;;;;;;;;;14.75;63.15;101498.25;5076421;28;19921;-68
2022/11/11 03:24:03;;;;;;;;;;;;;;;14.85;63.25;101496.31;5076366;28;19917;-69
2022/11/11 03:26:29;;;;;;;;;;;;;;;14.85;63.18;101500.72;5076380;28;19943;-68
2022/11/11 03:28:54;;;;;;;;;;;;;;;14.91;63.28;101504.09;5076313;28;19920;-68
2022/11/11 03:31:19;;;;;;;;;;;;;;;14.94;62.82;101509.34;5076254;28;19965;-69
2022/11/11 03:33:44;;;;;;;;;;;;;;;14.90;63.29;101520.88;5076542;28;19920;-68
2022/11/11 03:36:10;;;;;;;;;;;;;;;14.94;62.91;101519.91;5076417;28;19970;-68
2022/11/11 03:38:35;;;;;;;;;;;;;;;14.71;63.46;101524.81;5076213;28;20359;-68
2022/11/11 03:41:00;;;;;;;;;;;;;;;14.85;63.14;101514.84;5075898;28;19924;-68
2022/11/11 03:43:27;;;;;;;;;;;;;;;14.77;63.06;101500.91;5075059;28;19920;-68
2022/11/11 03:45:54;;;;;;;;;;;;;;;14.79;63.27;101493.78;5076096;28;19923;-68
2022/11/11 03:48:19;;;;;;;;;;;;;;;14.82;63.58;101480.50;5076027;28;19925;-68
2022/11/11 03:50:47;;;;;;;;;;;;;;;14.95;62.83;101466.06;5076090;28;20023;-68
2022/11/11 03:53:18;;;;;;;;;;;;;;;14.95;62.61;101481.94;5075134;28;20364;-68
2022/11/11 03:55:44;;;;;;;;;;;;;;;14.89;62.86;101479.47;5076024;28;19916;-69
2022/11/11 03:58:09;;;;;;;;;;;;;;;14.88;62.81;101483.03;5076095;28;19931;-69
2022/11/11 04:00:35;;;;;;;;;;;;;;;15.03;62.72;101476.50;5075660;28;19943;-69
2022/11/11 04:11:39;;;;;;;;;;;;;;;15.10;62.82;101485.19;5076093;28;20338;-68
2022/11/11 04:16:50;;;;;;;;;;;;;;;14.99;63.01;101475.69;5076269;28;19927;-69
2022/11/11 04:21:59;;;;;;;;;;;;;;;14.99;62.81;101465.09;5075621;28;19928;-68
2022/11/11 04:27:10;;;;;;;;;;;;;;;15.00;62.72;101463.31;5071911;28;20326;-68
2022/11/11 04:29:35;;;;;;;;;;;;;;;14.90;62.74;101467.97;5074411;28;20028;-70
2022/11/11 04:34:56;;;;;;;;;;;;;;;15.00;62.78;101485.38;5074468;28;20020;-70
2022/11/11 04:37:22;;;;;;;;;;;;;;;14.94;62.81;101488.16;5074783;28;20010;-68
2022/11/11 04:42:32;;;;;;;;;;;;;;;14.84;63.47;101472.50;5074032;28;19963;-68
2022/11/11 04:47:52;;;;;;;;;;;;;;;14.89;63.28;101452.13;5074198;28;19959;-67
2022/11/11 04:50:17;;;;;;;;;;;;;;;14.98;62.85;101449.28;5054951;28;19972;-68
2022/11/11 04:52:42;;;;;;;;;;;;;;;15.14;62.44;101452.44;5065553;28;20063;-69
2022/11/11 04:57:51;;;;;;;;;;;;;;;15.16;62.15;101443.56;5073757;28;19931;-70
2022/11/11 05:00:17;;;;;;;;;;;;;;;15.29;61.66;101433.53;5073493;28;20705;-69
2022/11/11 05:05:28;;;;;;;;;;;;;;;15.20;61.77;101421.41;5073582;28;20280;-70
2022/11/11 05:10:37;;;;;;;;;;;;;;;14.97;62.04;101435.16;5074713;28;20009;-69
2022/11/11 05:21:19;;;;;;;;;;;;;;;15.09;62.02;101443.75;5074061;28;19945;-69
2022/11/11 05:26:28;;;;;;;;;;;;;;;15.12;63.30;101433.06;5074201;28;19928;-69
2022/11/11 05:28:53;;;;;;;;;;;;;;;15.18;61.87;101439.09;5073060;28;20292;-70
2022/11/11 05:31:18;;;;;;;;;;;;;;;15.13;62.03;101442.75;5075640;28;19920;-69
2022/11/11 05:33:44;;;;;;;;;;;;;;;15.12;61.80;101439.25;5073165;28;20058;-70
2022/11/11 05:36:09;;;;;;;;;;;;;;;15.18;61.81;101432.91;5075641;28;19920;-69
2022/11/11 05:38:34;;;;;;;;;;;;;;;15.26;62.04;101425.66;5077328;28;20372;-68
2022/11/11 05:40:59;;;;;;;;;;;;;;;15.50;60.80;101435.63;5073705;28;19924;-69
2022/11/11 05:43:25;;;;;;;;;;;;;;;15.45;61.60;101442.84;5071971;28;19928;-70
2022/11/11 05:45:50;;;;;;;;;;;;;;;15.36;61.47;101453.66;5075487;28;19929;-70
2022/11/11 05:48:15;;;;;;;;;;;;;;;15.45;61.16;101461.38;5081825;28;19924;-68
2022/11/11 05:50:41;;;;;;;;;;;;;;;15.40;61.79;101450.03;5074574;28;19943;-69
2022/11/11 05:53:06;;;;;;;;;;;;;;;15.41;61.19;101449.13;5073898;28;19928;-69
2022/11/11 05:55:31;;;;;;;;;;;;;;;15.54;60.71;101452.31;5071700;28;19924;-69
2022/11/11 05:57:57;;;;;;;;;;;;;;;15.52;60.58;101455.03;5072867;28;19921;-69
2022/11/11 06:00:22;;;;;;;;;;;;;;;15.56;61.96;101449.63;5076401;28;19924;-65
2022/11/11 06:02:47;;;;;;;;;;;;;;;15.34;61.27;101450.16;5081947;28;20451;-69
2022/11/11 06:05:13;;;;;;;;;;;;;;;15.35;62.04;101448.38;5072002;28;19928;-70
2022/11/11 06:07:39;;;;;;;;;;;;;;;15.49;61.09;101449.81;5072590;28;20008;-70
2022/11/11 06:13:04;;;;;;;;;;;;;;;15.56;60.73;101445.22;5092572;28;19966;-70
2022/11/11 06:15:33;;;;;;;;;;;;;;;15.49;61.68;101433.91;5086198;28;19994;-70
2022/11/11 06:17:59;;;;;;;;;;;;;;;15.48;60.69;101432.19;5077871;28;19920;-70
2022/11/11 06:20:24;;;;;;;;;;;;;;;15.56;60.73;101434.63;5075953;28;20336;-70
2022/11/11 06:22:55;;;;;;;;;;;;;;;15.47;60.68;101441.00;5075821;28;19921;-70
2022/11/11 06:28:05;;;;;;;;;;;;;;;15.33;60.53;101437.84;5077246;28;19953;-68
2022/11/11 06:30:30;;;;;;;;;;;;;;;15.39;60.47;101442.97;5075884;28;20342;-70
2022/11/11 06:32:55;;;;;;;;;;;;;;;15.47;60.62;101462.19;5057078;28;19956;-68
2022/11/11 06:35:20;;;;;;;;;;;;;;;15.44;60.61;101472.88;5075916;28;19932;-69
2022/11/11 06:37:46;;;;;;;;;;;;;;;15.30;61.11;101484.72;5079420;28;19991;-70
2022/11/11 06:40:11;;;;;;;;;;;;;;;15.42;60.86;101481.78;5079085;28;20332;-70
2022/11/11 06:42:36;;;;;;;;;;;;;;;15.46;61.27;101484.31;5078469;28;19924;-70
2022/11/11 06:45:02;;;;;;;;;;;;;;;15.42;61.29;101472.03;5078395;28;19981;-69
2022/11/11 06:47:27;;;;;;;;;;;;;;;15.58;60.73;101488.44;5078835;28;19928;-69
2022/11/11 06:49:52;;;;;;;;;;;;;;;15.59;60.96;101486.66;5079085;28;19968;-70
2022/11/11 06:52:18;;;;;;;;;;;;;;;15.56;60.36;101486.72;5079055;28;20395;-70
2022/11/11 06:54:43;;;;;;;;;;;;;;;15.63;60.88;101496.25;5078039;28;20338;-70
2022/11/11 06:57:08;;;;;;;;;;;;;;;15.65;59.99;101499.78;5079950;28;20326;-70
2022/11/11 06:59:34;;;;;;;;;;;;;;;15.46;60.91;101505.50;5077454;28;19932;-69
2022/11/11 07:01:59;;;;;;;;;;;;;;;15.66;60.45;101494.44;5077743;28;19932;-69
2022/11/11 07:04:24;;;;;;;;;;;;;;;15.49;60.55;101508.06;5090181;28;19931;-69
2022/11/11 07:06:49;;;;;;;;;;;;;;;15.39;60.79;101500.38;5073747;28;19931;-68
2022/11/11 07:09:14;;;;;;;;;;;;;;;15.42;61.00;101490.59;5091872;28;20295;-70
2022/11/11 07:11:40;;;;;;;;;;;;;;;15.50;60.71;101501.84;5076222;28;19975;-68
2022/11/11 07:14:05;;;;;;;;;;;;;;;15.58;61.02;101504.31;5084819;28;20372;-68
2022/11/11 07:16:30;;;;;;;;;;;;;;;15.56;60.82;101497.31;5084268;28;20490;-69
2022/11/11 07:18:55;;;;;;;;;;;;;;;15.49;61.49;101502.78;5077226;28;19947;-67
2022/11/11 07:21:21;;;;;;;;;;;;;;;15.32;60.73;101497.03;5075778;28;19931;-70
2022/11/11 07:23:46;;;;;;;;;;;;;;;15.56;60.99;101499.97;5084001;28;19920;-70
2022/11/11 07:26:11;;;;;;;;;;;;;;;15.58;60.42;101490.22;5078225;28;19934;-70
2022/11/11 07:28:36;;;;;;;;;;;;;;;15.68;60.83;101491.78;5084091;28;20021;-69
2022/11/11 07:31:02;;;;;;;;;;;;;;;15.47;60.79;101493.97;5076889;28;19932;-69
2022/11/11 07:33:27;;;;;;;;;;;;;;;15.50;60.18;101493.03;5091074;28;19939;-71
2022/11/11 07:35:52;;;;;;;;;;;;;;;15.56;60.49;101492.00;5091111;28;19931;-69
2022/11/11 07:38:17;;;;;;;;;;;;;;;15.60;60.87;101491.03;5080663;28;19935;-69
2022/11/11 07:40:43;;;;;;;;;;;;;;;15.67;60.68;101495.31;5082115;28;19981;-70
2022/11/11 07:43:08;;;;;;;;;;;;;;;15.43;60.35;101502.91;5080461;28;19925;-70
2022/11/11 07:45:33;;;;;;;;;;;;;;;15.61;60.89;101503.38;5092480;28;19966;-69
2022/11/11 07:47:58;;;;;;;;;;;;;;;15.69;59.87;101494.38;5091562;28;19964;-70
2022/11/11 07:50:23;;;;;;;;;;;;;;;15.58;60.38;101508.75;5077936;28;19924;-69
2022/11/11 07:52:49;;;;;;;;;;;;;;;15.67;61.00;101517.38;5077419;28;19920;-70
2022/11/11 07:55:14;;;;;;;;;;;;;;;15.71;60.47;101512.88;5076807;28;20027;-70
2022/11/11 07:57:39;;;;;;;;;;;;;;;15.55;59.80;101524.72;5059319;28;19963;-70
2022/11/11 08:00:05;;;;;;;;;;;;;;;15.67;60.23;101533.25;5079854;28;20299;-69
2022/11/11 08:02:30;;;;;;;;;;;;;;;15.49;60.09;101539.00;5078212;28;19951;-70
2022/11/11 08:04:55;;;;;;;;;;;;;;;15.56;60.21;101524.69;5091298;28;19924;-69
2022/11/11 08:07:21;;;;;;;;;;;;;;;15.57;60.07;101526.44;5077927;28;19927;-70
2022/11/11 08:09:46;;;;;;;;;;;;;;;15.85;60.09;101520.47;5083528;28;20040;-70
2022/11/11 08:14:55;;;;;;;;;;;;;;;15.82;59.25;101528.50;5088180;28;20386;-68
2022/11/11 08:17:21;;;;;;;;;;;;;;;15.72;59.40;101533.19;5091864;28;19924;-71
2022/11/11 08:19:46;;;;;;;;;;;;;;;15.82;59.67;101526.72;5092055;28;19963;-69
2022/11/11 08:22:11;;;;;;;;;;;;;;;15.87;59.75;101522.16;5089857;28;19924;-69
2022/11/11 08:24:37;;;;;;;;;;;;;;;15.85;60.98;101525.78;5078156;28;19975;-70
2022/11/11 08:27:02;;;;;;;;;;;;;;;15.89;59.14;101530.09;5078496;28;19924;-70
2022/11/11 08:29:27;;;;;;;;;;;;;;;15.84;59.17;101527.56;5078096;28;19966;-70
2022/11/11 08:31:52;;;;;;;;;;;;;;;15.99;60.14;101523.63;5077623;28;19932;-71
2022/11/11 08:34:18;;;;;;;;;;;;;;;16.13;59.38;101531.25;5077752;28;19970;-70
2022/11/11 08:36:43;;;;;;;;;;;;;;;16.10;58.95;101531.31;5077560;28;19924;-70
2022/11/11 08:39:08;;;;;;;;;;;;;;;15.71;59.79;101531.41;5078615;28;20406;-70
2022/11/11 08:41:34;;;;;;;;;;;;;;;15.78;59.90;101535.66;5076993;28;19925;-71
2022/11/11 08:43:59;;;;;;;;;;;;;;;15.78;59.54;101548.91;5077390;28;20380;-71
2022/11/11 08:46:25;;;;;;;;;;;;;;;15.96;59.34;101535.19;5088699;28;19994;-70
2022/11/11 08:48:50;;;;;;;;;;;;;;;15.86;59.49;101538.13;5091453;28;20142;-70
2022/11/11 08:51:16;;;;;;;;;;;;;;;16.02;59.30;101532.38;5089887;28;19935;-69
2022/11/11 08:53:41;;;;;;;;;;;;;;;16.08;59.91;101535.78;5091439;28;19931;-71
2022/11/11 08:56:07;;;;;;;;;;;;;;;15.99;59.71;101534.22;5090006;28;19963;-71
2022/11/11 08:58:33;;;;;;;;;;;;;;;16.21;59.25;101543.38;5090352;28;20419;-71
2022/11/11 09:01:00;;;;;;;;;;;;;;;16.20;58.72;101536.34;5090891;28;19920;-70
2022/11/11 09:03:25;;;;;;;;;;;;;;;16.18;59.61;101542.59;5086042;28;19925;-70
2022/11/11 09:05:50;;;;;;;;;;;;;;;16.16;59.17;101531.16;5084570;28;19925;-71
2022/11/11 09:08:16;;;;;;;;;;;;;;;16.26;59.22;101519.38;5077616;28;19940;-69
2022/11/11 09:10:41;;;;;;;;;;;;;;;16.25;59.37;101513.22;5076628;28;20268;-71
2022/11/11 09:13:07;;;;;;;;;;;;;;;16.26;58.83;101520.25;5085455;28;19923;-70
2022/11/11 09:15:33;;;;;;;;;;;;;;;16.33;58.84;101522.75;5094548;28;19920;-71
2022/11/11 09:17:58;;;;;;;;;;;;;;;16.42;58.14;101526.00;5093515;28;19919;-70
2022/11/11 09:20:24;;;;;;;;;;;;;;;16.46;58.24;101532.97;5094315;28;19939;-68
2022/11/11 09:22:49;;;;;;;;;;;;;;;16.37;57.61;101535.00;5094774;28;19926;-70
2022/11/11 09:25:15;;;;;;;;;;;;;;;16.45;58.62;101533.03;5094595;28;19963;-70
2022/11/11 09:27:40;;;;;;;;;;;;;;;16.65;57.50;101540.41;5094267;28;19924;-70
2022/11/11 09:30:06;;;;;;;;;;;;;;;16.72;57.61;101529.59;5094414;28;20379;-71
2022/11/11 09:32:32;;;;;;;;;;;;;;;16.56;57.66;101538.03;5094532;28;20455;-70
2022/11/11 09:34:57;;;;;;;;;;;;;;;16.68;57.16;101529.72;5094563;28;20019;-70
2022/11/11 09:37:23;;;;;;;;;;;;;;;16.69;57.05;101529.66;5094116;28;19924;-70
2022/11/11 09:39:48;;;;;;;;;;;;;;;16.77;57.36;101526.81;5094649;28;19920;-70
2022/11/11 09:42:31;;;;;;;;;;;;;;;16.80;57.28;101521.44;5094135;28;20011;-69
2022/11/11 09:45:08;;;;;;;;;;;;;;;16.68;57.49;101525.28;5094215;28;19955;-72
2022/11/11 09:47:39;;;;;;;;;;;;;;;16.76;56.76;101522.44;5094128;28;19969;-71
2022/11/11 09:50:08;;;;;;;;;;;;;;;16.85;57.64;101534.56;5094174;28;19931;-71
2022/11/11 09:52:33;;;;;;;;;;;;;;;16.67;57.00;101522.66;5094535;28;19916;-70
2022/11/11 09:55:19;;;;;;;;;;;;;;;16.52;58.07;101539.91;5094112;28;20329;-70
2022/11/11 09:57:51;;;;;;;;;;;;;;;16.34;58.50;101545.69;5092103;28;20294;-71
2022/11/11 10:00:19;;;;;;;;;;;;;;;16.61;57.66;101536.97;5093800;28;20003;-71
2022/11/11 10:02:52;;;;;;;;;;;;;;;16.62;57.25;101545.81;5094183;28;19924;-70
2022/11/11 10:05:21;;;;;;;;;;;;;;;16.61;57.22;101555.56;5093997;28;19916;-69
2022/11/11 10:07:58;;;;;;;;;;;;;;;16.36;57.50;101568.63;5093946;28;19916;-71
2022/11/11 10:10:37;;;;;;;;;;;;;;;16.43;57.98;101558.69;5098015;28;19920;-71
2022/11/11 10:13:02;;;;;;;;;;;;;;;15.98;58.44;101551.06;5098298;28;19916;-70
2022/11/11 10:15:34;;;;;;;;;;;;;;;16.17;58.16;101567.38;5098157;28;19942;-70
2022/11/11 10:18:15;;;;;;;;;;;;;;;16.31;58.65;101572.28;5098320;28;19923;-71
2022/11/11 10:20:44;;;;;;;;;;;;;;;16.29;58.88;101566.19;5097841;28;20019;-71
2022/11/11 10:23:09;;;;;;;;;;;;;;;16.38;58.21;101565.91;5097780;28;19999;-70
2022/11/11 10:25:35;;;;;;;;;;;;;;;16.37;57.65;101564.19;5096699;28;20038;-70
2022/11/11 10:28:01;;;;;;;;;;;;;;;16.53;57.49;101567.28;5097968;28;19928;-70
2022/11/11 10:30:30;;;;;;;;;;;;;;;16.39;57.66;101565.88;5097920;28;19920;-71
2022/11/11 10:33:03;;;;;;;;;;;;;;;16.33;57.46;101566.06;5097893;28;19916;-70
2022/11/11 10:35:30;;;;;;;;;;;;;;;16.32;57.69;101568.72;5099789;28;20065;-70
2022/11/11 10:38:12;;;;;;;;;;;;;;;16.44;57.66;101568.44;5098929;28;19923;-70
2022/11/11 10:40:52;;;;;;;;;;;;;;;16.51;57.67;101570.84;5097697;28;19916;-70
2022/11/11 10:43:22;;;;;;;;;;;;;;;16.55;58.50;101576.94;5097526;28;19939;-70
2022/11/11 10:45:57;;;;;;;;;;;;;;;16.54;57.35;101580.50;5098328;28;19916;-70
2022/11/11 10:48:27;;;;;;;;;;;;;;;16.62;57.36;101573.19;5097829;28;20371;-72
2022/11/11 10:50:55;;;;;;;;;;;;;;;16.59;57.12;101561.81;5097130;28;20436;-71
2022/11/11 10:53:21;;;;;;;;;;;;;;;16.60;56.92;101564.44;5097323;28;20002;-71
2022/11/11 10:56:06;;;;;;;;;;;;;;;16.43;56.97;101558.69;5097443;28;19993;-71
2022/11/11 10:58:35;;;;;;;;;;;;;;;16.61;57.12;101538.75;5097190;28;20045;-71
2022/11/11 11:01:02;;;;;;;;;;;;;;;16.53;57.67;101554.03;5096931;28;20012;-71
2022/11/11 11:03:40;;;;;;;;;;;;;;;16.59;58.36;101551.19;5097491;28;19920;-70
2022/11/11 11:06:09;;;;;;;;;;;;;;;16.63;57.43;101540.44;5097226;28;20035;-71
2022/11/11 11:08:44;;;;;;;;;;;;;;;16.63;56.82;101543.09;5097003;28;19916;-70
2022/11/11 11:11:20;;;;;;;;;;;;;;;16.17;57.39;101547.03;5097311;28;20007;-70
2022/11/11 11:13:51;;;;;;;;;;;;;;;16.23;57.69;101545.97;5097292;28;19922;-71
2022/11/11 11:16:19;;;;;;;;;;;;;;;16.46;58.04;101546.22;5076795;28;20019;-71
2022/11/11 11:19:04;;;;;;;;;;;;;;;16.58;57.33;101552.09;5076420;28;19920;-70
2022/11/11 11:21:46;;;;;;;;;;;;;;;16.55;57.65;101544.22;5075516;28;19923;-70
2022/11/11 11:24:25;;;;;;;;;;;;;;;16.49;57.90;101546.16;5089476;28;19985;-72
2022/11/11 11:26:58;;;;;;;;;;;;;;;16.55;58.02;101549.53;5096588;28;20441;-70
2022/11/11 11:29:28;;;;;;;;;;;;;;;16.62;57.04;101545.81;5096500;28;19916;-71
2022/11/11 11:31:54;;;;;;;;;;;;;;;16.67;56.78;101565.09;5095210;28;19923;-70
2022/11/11 11:34:19;;;;;;;;;;;;;;;16.66;57.29;101563.38;5096890;28;19920;-70
2022/11/11 11:36:58;;;;;;;;;;;;;;;16.70;56.87;101555.28;5096592;28;19927;-71
2022/11/11 11:39:33;;;;;;;;;;;;;;;16.38;57.52;101553.53;5096390;28;19959;-69
2022/11/11 11:41:58;;;;;;;;;;;;;;;16.30;57.59;101560.81;5096234;28;19916;-70
2022/11/11 11:44:34;;;;;;;;;;;;;;;16.44;57.30;101568.44;5096036;28;19945;-71
2022/11/11 11:46:59;;;;;;;;;;;;;;;16.48;58.20;101560.34;5096565;28;19916;-70
2022/11/11 11:49:30;;;;;;;;;;;;;;;16.34;57.83;101561.63;5095055;28;19927;-71
2022/11/11 11:52:05;;;;;;;;;;;;;;;16.55;58.03;101549.53;5094868;28;19920;-71
2022/11/11 11:54:42;;;;;;;;;;;;;;;16.53;57.99;101552.25;5096377;28;20007;-71
2022/11/11 11:57:18;;;;;;;;;;;;;;;16.63;57.92;101555.50;5096232;28;19969;-71
2022/11/11 11:59:49;;;;;;;;;;;;;;;16.57;57.51;101555.69;5096141;28;19916;-70
2022/11/11 12:02:27;;;;;;;;;;;;;;;16.61;57.76;101546.72;5096278;28;20402;-70
2022/11/11 12:05:12;;;;;;;;;;;;;;;16.57;57.90;101553.03;5095949;28;19920;-71
2022/11/11 12:07:37;;;;;;;;;;;;;;;16.67;57.43;101554.50;5096502;28;19920;-71
2022/11/11 12:10:09;;;;;;;;;;;;;;;16.59;56.95;101552.06;5094903;28;20252;-71
2022/11/11 12:12:49;;;;;;;;;;;;;;;16.48;57.47;101551.50;5076496;28;19928;-70
2022/11/11 12:15:24;;;;;;;;;;;;;;;16.48;58.10;101552.38;5055832;28;20430;-70
2022/11/11 12:17:56;;;;;;;;;;;;;;;16.42;58.15;101560.50;5064620;28;19923;-70
2022/11/11 12:20:34;;;;;;;;;;;;;;;16.49;57.83;101561.19;5079487;28;20307;-71
2022/11/11 12:23:07;;;;;;;;;;;;;;;16.21;57.94;101561.06;5075548;28;19917;-71
2022/11/11 12:25:38;;;;;;;;;;;;;;;16.29;58.38;101553.78;5075287;28;19924;-71
2022/11/11 12:28:11;;;;;;;;;;;;;;;16.48;58.12;101552.38;5075157;28;19924;-70
2022/11/11 12:30:39;;;;;;;;;;;;;;;16.31;58.33;101553.72;5089547;28;20287;-70
2022/11/11 12:33:24;;;;;;;;;;;;;;;16.41;57.72;101549.94;5094358;28;20008;-71
2022/11/11 12:36:06;;;;;;;;;;;;;;;16.40;57.87;101556.16;5095554;28;19917;-70
2022/11/11 12:38:47;;;;;;;;;;;;;;;16.30;57.98;101560.81;5079387;28;20392;-70
2022/11/11 12:41:12;;;;;;;;;;;;;;;16.30;58.72;101563.47;5073744;28;20304;-68
2022/11/11 12:44:02;;;;;;;;;;;;;;;16.39;59.27;101559.69;5055071;28;19917;-69
2022/11/11 12:46:46;;;;;;;;;;;;;;;16.21;58.47;101559.28;5056654;28;20306;-69
2022/11/11 12:49:17;;;;;;;;;;;;;;;16.25;58.75;101560.06;5054968;28;19975;-69
2022/11/11 12:51:49;;;;;;;;;;;;;;;16.29;58.62;101563.53;5054619;28;19932;-70
2022/11/11 12:54:30;;;;;;;;;;;;;;;16.20;58.95;101567.28;5054988;28;20400;-70
2022/11/11 12:57:14;;;;;;;;;;;;;;;16.36;58.29;101571.28;5054989;28;20394;-70
2022/11/11 12:59:50;;;;;;;;;;;;;;;16.38;58.44;101572.09;5054756;28;20265;-71
2022/11/11 13:02:15;;;;;;;;;;;;;;;16.29;58.46;101564.38;5055307;28;19917;-70
2022/11/11 13:04:40;;;;;;;;;;;;;;;16.47;58.42;101560.34;5054345;28;19917;-70
2022/11/11 13:07:24;;;;;;;;;;;;;;;16.40;58.13;101562.31;5054479;28;19921;-70
2022/11/11 13:09:55;;;;;;;;;;;;;;;16.42;58.46;101564.94;5054440;28;20368;-70
2022/11/11 13:12:20;;;;;;;;;;;;;;;16.43;58.69;101564.88;5054642;28;19963;-70
2022/11/11 13:14:45;;;;;;;;;;;;;;;16.47;58.39;101555.91;5054427;28;19956;-71
2022/11/11 13:17:12;;;;;;;;;;;;;;;16.41;58.82;101564.06;5054348;28;19917;-69
2022/11/11 13:19:37;;;;;;;;;;;;;;;16.43;58.62;101562.22;5054251;28;19971;-70
2022/11/11 13:22:14;;;;;;;;;;;;;;;16.48;58.25;101555.03;5054147;28;20361;-68
2022/11/11 13:24:39;;;;;;;;;;;;;;;16.51;58.35;101560.22;5054356;28;20007;-70
2022/11/11 13:27:11;;;;;;;;;;;;;;;16.36;58.43;101563.31;5086791;28;20336;-70
2022/11/11 13:29:37;;;;;;;;;;;;;;;16.15;59.54;101569.16;5054858;28;20011;-70
2022/11/11 13:32:04;;;;;;;;;;;;;;;16.31;59.36;101559.91;5054035;28;19998;-70
2022/11/11 13:34:33;;;;;;;;;;;;;;;16.41;58.87;101565.84;5054451;28;20012;-70
2022/11/11 13:36:59;;;;;;;;;;;;;;;16.46;59.37;101570.09;5053973;28;19986;-69
2022/11/11 13:39:30;;;;;;;;;;;;;;;16.46;58.75;101571.88;5054036;28;19917;-70
2022/11/11 13:41:56;;;;;;;;;;;;;;;16.48;59.15;101570.09;5054145;28;19952;-70
2022/11/11 13:44:28;;;;;;;;;;;;;;;16.53;59.41;101572.59;5053539;28;19921;-71
2022/11/11 13:46:59;;;;;;;;;;;;;;;16.54;59.23;101572.56;5086158;28;19917;-70
2022/11/11 13:49:30;;;;;;;;;;;;;;;16.10;60.17;101579.91;5054006;28;19931;-70
2022/11/11 13:51:57;;;;;;;;;;;;;;;16.07;60.49;101590.56;5053738;28;19990;-71
2022/11/11 13:54:24;;;;;;;;;;;;;;;16.14;60.34;101591.31;5053832;28;19928;-70
2022/11/11 13:56:50;;;;;;;;;;;;;;;16.12;60.85;101590.50;5053870;28;19921;-70